createdAt,value
2022-10-07T00:00:43.685Z,75.05
2022-10-07T00:03:10.051Z,72.10
2022-10-07T00:05:39.595Z,69.68
2022-10-07T00:08:05.991Z,65.40
2022-10-07T00:10:32.383Z,57.00
2022-10-07T00:12:58.752Z,51.13
2022-10-07T00:15:25.157Z,50.30
2022-10-07T00:17:51.519Z,48.45
2022-10-07T00:20:17.883Z,58.72
2022-10-07T00:22:44.257Z,101.47
2022-10-07T00:25:10.625Z,136.98
2022-10-07T00:27:37.240Z,103.15
2022-10-07T00:30:03.628Z,70.43
2022-10-07T00:32:29.986Z,69.75
2022-10-07T00:34:56.357Z,70.80
2022-10-07T00:37:22.673Z,85.72
2022-10-07T00:39:48.947Z,104.25
2022-10-07T00:42:15.204Z,119.80
2022-10-07T00:44:41.481Z,85.85
2022-10-07T00:47:07.738Z,71.18
2022-10-07T00:49:33.987Z,74.70
2022-10-07T00:52:00.243Z,68.70
2022-10-07T00:54:26.491Z,69.85
2022-10-07T00:56:52.749Z,78.30
2022-10-07T00:59:19.007Z,94.53
2022-10-07T01:01:46.222Z,94.25
2022-10-07T01:04:12.420Z,93.33
2022-10-07T01:06:39.227Z,91.35
2022-10-07T01:09:05.475Z,86.35
2022-10-07T01:11:31.809Z,83.65
2022-10-07T01:13:58.068Z,84.75
2022-10-07T01:16:24.373Z,74.88
2022-10-07T01:18:52.591Z,75.72
2022-10-07T01:21:18.833Z,75.85
2022-10-07T01:23:45.157Z,71.25
2022-10-07T01:26:11.479Z,72.00
2022-10-07T01:28:38.155Z,77.00
2022-10-07T01:31:05.321Z,77.07
2022-10-07T01:33:31.561Z,74.57
2022-10-07T01:35:57.872Z,80.72
2022-10-07T01:38:26.145Z,69.85
2022-10-07T01:40:52.416Z,80.43
2022-10-07T01:43:18.668Z,95.03
2022-10-07T01:45:44.981Z,68.10
2022-10-07T01:48:11.270Z,63.53
2022-10-07T01:50:37.517Z,112.32
2022-10-07T01:53:03.798Z,70.97
2022-10-07T01:55:30.038Z,59.08
2022-10-07T01:57:56.293Z,54.22
2022-10-07T02:00:24.026Z,57.17
2022-10-07T02:02:50.305Z,97.78
2022-10-07T02:05:16.868Z,114.93
2022-10-07T02:07:43.455Z,94.25
2022-10-07T02:10:09.857Z,93.70
2022-10-07T02:12:36.190Z,108.38
2022-10-07T02:15:03.846Z,113.07
2022-10-07T02:17:30.091Z,103.07
2022-10-07T02:19:56.459Z,114.53
2022-10-07T02:22:23.037Z,109.63
2022-10-07T02:24:49.273Z,102.05
2022-10-07T02:27:15.529Z,97.85
2022-10-07T02:29:41.770Z,93.53
2022-10-07T02:32:08.015Z,102.85
2022-10-07T02:34:34.438Z,113.57
2022-10-07T02:37:00.788Z,102.15
2022-10-07T02:39:27.044Z,100.78
2022-10-07T02:41:53.392Z,92.95
2022-10-07T02:44:19.696Z,70.10
2022-10-07T02:46:46.120Z,56.13
2022-10-07T02:49:12.363Z,56.38
2022-10-07T02:51:38.559Z,53.92
2022-10-07T02:54:04.812Z,54.08
2022-10-07T02:56:31.058Z,53.00
2022-10-07T02:58:57.302Z,56.83
2022-10-07T03:01:23.678Z,49.60
2022-10-07T03:03:50.002Z,53.25
2022-10-07T03:06:17.036Z,53.92
2022-10-07T03:08:43.526Z,51.78
2022-10-07T03:11:09.796Z,51.83
2022-10-07T03:13:36.047Z,51.80
2022-10-07T03:16:05.281Z,52.10
2022-10-07T03:18:31.713Z,51.92
2022-10-07T03:20:57.990Z,49.88
2022-10-07T03:23:24.527Z,52.45
2022-10-07T03:25:51.797Z,54.58
2022-10-07T03:28:18.111Z,57.45
2022-10-07T03:30:46.463Z,55.05
2022-10-07T03:33:13.151Z,54.50
2022-10-07T03:35:39.398Z,60.08
2022-10-07T03:38:08.695Z,67.07
2022-10-07T03:40:34.995Z,77.53
2022-10-07T03:43:01.911Z,68.53
2022-10-07T03:45:29.520Z,65.72
2022-10-07T03:47:55.772Z,62.42
2022-10-07T03:50:22.038Z,66.90
2022-10-07T03:52:48.291Z,73.97
2022-10-07T03:55:14.577Z,71.50
2022-10-07T03:57:49.906Z,65.45
2022-10-07T04:00:16.202Z,67.47
2022-10-07T04:02:42.538Z,69.90
2022-10-07T04:05:08.846Z,69.63
2022-10-07T04:07:35.102Z,71.45
2022-10-07T04:10:01.363Z,72.57
2022-10-07T04:12:33.462Z,71.05
2022-10-07T04:15:01.774Z,70.70
2022-10-07T04:17:28.033Z,72.38
2022-10-07T04:19:54.215Z,67.40
2022-10-07T04:22:20.515Z,63.97
2022-10-07T04:25:06.712Z,62.83
2022-10-07T04:27:50.680Z,65.10
2022-10-07T04:30:17.636Z,63.40
2022-10-07T04:32:44.056Z,64.97
2022-10-07T04:35:10.294Z,68.32
2022-10-07T04:37:36.511Z,64.20
2022-10-07T04:40:02.776Z,66.85
2022-10-07T04:42:47.827Z,67.63
2022-10-07T04:45:14.023Z,60.15
2022-10-07T04:47:40.293Z,63.22
2022-10-07T04:50:07.693Z,62.88
2022-10-07T04:52:34.190Z,61.42
2022-10-07T04:55:00.368Z,59.88
2022-10-07T04:57:26.555Z,60.22
2022-10-07T04:59:52.788Z,64.40
2022-10-07T05:02:19.016Z,61.58
2022-10-07T05:04:45.442Z,65.50
2022-10-07T05:07:11.658Z,69.82
2022-10-07T05:09:37.859Z,97.20
2022-10-07T05:12:05.016Z,81.72
2022-10-07T05:14:32.808Z,86.27
2022-10-07T05:16:59.526Z,75.95
2022-10-07T05:19:26.096Z,58.53
2022-10-07T05:21:52.298Z,68.75
2022-10-07T05:24:18.490Z,69.43
2022-10-07T05:26:44.695Z,66.13
2022-10-07T05:29:10.901Z,76.18
2022-10-07T05:31:37.198Z,55.15
2022-10-07T05:34:03.471Z,62.30
2022-10-07T05:36:29.656Z,56.15
2022-10-07T05:38:57.909Z,51.90
2022-10-07T05:41:24.178Z,55.25
2022-10-07T05:43:50.366Z,51.25
2022-10-07T05:46:16.731Z,45.40
2022-10-07T05:48:44.064Z,44.90
2022-10-07T05:51:10.345Z,41.42
2022-10-07T05:53:36.535Z,45.00
2022-10-07T05:56:02.715Z,45.47
2022-10-07T05:58:28.975Z,42.95
2022-10-07T06:00:55.204Z,43.67
2022-10-07T06:03:21.438Z,45.15
2022-10-07T06:05:47.803Z,43.97
2022-10-07T06:08:14.055Z,44.33
2022-10-07T06:10:58.876Z,44.28
2022-10-07T06:13:25.136Z,42.63
2022-10-07T06:15:51.398Z,46.65
2022-10-07T06:18:17.582Z,43.80
2022-10-07T06:20:43.768Z,43.15
2022-10-07T06:23:10.042Z,45.00
2022-10-07T06:25:36.295Z,41.38
2022-10-07T06:28:03.089Z,44.42
2022-10-07T06:30:29.430Z,42.92
2022-10-07T06:32:57.057Z,42.92
2022-10-07T06:35:23.354Z,40.72
2022-10-07T06:37:49.544Z,44.97
2022-10-07T06:40:15.828Z,44.25
2022-10-07T06:42:42.103Z,47.70
2022-10-07T06:45:08.357Z,51.10
2022-10-07T06:47:34.681Z,52.65
2022-10-07T06:50:00.939Z,63.05
2022-10-07T06:52:27.495Z,67.13
2022-10-07T06:54:53.747Z,58.50
2022-10-07T06:57:44.472Z,62.20
2022-10-07T07:00:06.211Z,54.53
2022-10-07T07:02:32.510Z,62.22
2022-10-07T07:04:58.989Z,72.32
2022-10-07T07:07:25.360Z,79.78
2022-10-07T07:09:51.619Z,81.72
2022-10-07T07:12:17.919Z,80.40
2022-10-07T07:14:45.326Z,76.93
2022-10-07T07:17:11.628Z,72.15
2022-10-07T07:19:37.923Z,74.57
2022-10-07T07:22:05.271Z,68.07
2022-10-07T07:24:31.516Z,67.00
2022-10-07T07:26:57.765Z,62.63
2022-10-07T07:29:24.223Z,63.70
2022-10-07T07:31:50.923Z,70.07
2022-10-07T07:34:17.202Z,79.43
2022-10-07T07:36:43.478Z,84.82
2022-10-07T07:39:09.795Z,83.28
2022-10-07T07:41:36.175Z,93.20
2022-10-07T07:44:02.439Z,90.18
2022-10-07T07:46:29.486Z,102.03
2022-10-07T07:48:55.750Z,125.72
2022-10-07T07:51:22.113Z,151.68
2022-10-07T07:53:49.935Z,139.82
2022-10-07T07:56:16.262Z,153.43
2022-10-07T07:58:42.526Z,169.68
2022-10-07T08:01:08.825Z,151.10
2022-10-07T08:03:37.284Z,176.57
2022-10-07T08:06:03.595Z,96.55
2022-10-07T08:08:30.067Z,116.15
2022-10-07T08:10:56.324Z,111.03
2022-10-07T08:13:22.574Z,97.43
2022-10-07T08:15:48.953Z,89.30
2022-10-07T08:18:15.226Z,96.63
2022-10-07T08:20:41.466Z,92.40
2022-10-07T08:23:07.759Z,86.20
2022-10-07T08:25:34.025Z,75.60
2022-10-07T08:28:01.083Z,74.07
2022-10-07T08:30:27.311Z,80.00
2022-10-07T08:32:55.781Z,77.38
2022-10-07T08:35:25.322Z,73.45
2022-10-07T08:37:51.901Z,81.47
2022-10-07T08:40:18.645Z,78.70
2022-10-07T08:42:44.907Z,71.80
2022-10-07T08:45:11.604Z,74.43
2022-10-07T08:47:38.730Z,62.63
2022-10-07T08:50:05.083Z,59.73
2022-10-07T08:52:32.842Z,66.88
2022-10-07T08:54:59.563Z,59.53
2022-10-07T08:57:25.822Z,63.60
2022-10-07T08:59:52.059Z,82.20
2022-10-07T09:02:18.538Z,84.38
2022-10-07T09:04:44.811Z,96.03
2022-10-07T09:07:11.123Z,68.40
2022-10-07T09:09:37.481Z,71.28
2022-10-07T09:12:03.754Z,77.07
2022-10-07T09:14:30.007Z,67.95
2022-10-07T09:16:56.286Z,102.55
2022-10-07T09:19:22.539Z,53.88
2022-10-07T09:21:48.815Z,54.88
2022-10-07T09:24:15.186Z,65.32
2022-10-07T09:26:41.591Z,71.85
2022-10-07T09:29:07.840Z,79.88
2022-10-07T09:31:35.114Z,91.22
2022-10-07T09:34:01.440Z,62.15
2022-10-07T09:36:27.680Z,72.40
2022-10-07T09:38:53.976Z,125.07
2022-10-07T09:41:20.290Z,90.55
2022-10-07T09:43:46.559Z,65.28
2022-10-07T09:46:12.829Z,93.57
2022-10-07T09:48:39.172Z,110.75
2022-10-07T09:51:05.787Z,103.65
2022-10-07T09:53:33.392Z,275.55
2022-10-07T09:55:59.661Z,64.32
2022-10-07T09:58:26.014Z,83.80
2022-10-07T10:00:52.322Z,263.60
2022-10-07T10:03:18.731Z,393.75
2022-10-07T10:05:45.047Z,150.52
2022-10-07T10:08:11.314Z,143.43
2022-10-07T10:10:37.665Z,63.67
2022-10-07T10:13:03.934Z,235.65
2022-10-07T10:15:30.192Z,178.30
2022-10-07T10:17:59.490Z,139.07
2022-10-07T10:20:25.840Z,139.85
2022-10-07T10:22:52.121Z,100.75
2022-10-07T10:25:38.660Z,105.25
2022-10-07T10:28:05.002Z,117.25
2022-10-07T10:30:31.308Z,159.13
2022-10-07T10:32:57.576Z,123.05
2022-10-07T10:35:23.826Z,97.15
2022-10-07T10:37:50.292Z,74.93
2022-10-07T10:40:16.590Z,85.38
2022-10-07T10:42:44.456Z,176.63
2022-10-07T10:45:11.819Z,196.82
2022-10-07T10:47:38.852Z,119.88
2022-10-07T10:50:06.035Z,107.55
2022-10-07T10:52:32.349Z,140.23
2022-10-07T10:54:58.596Z,244.00
2022-10-07T10:57:24.855Z,114.13
2022-10-07T10:59:51.143Z,177.65
2022-10-07T11:02:17.430Z,259.98
2022-10-07T11:04:43.741Z,263.52
2022-10-07T11:07:09.995Z,175.77
2022-10-07T11:09:36.266Z,126.15
2022-10-07T11:12:02.569Z,92.57
2022-10-07T11:14:30.069Z,86.20
2022-10-07T11:16:56.563Z,83.72
2022-10-07T11:19:22.883Z,86.30
2022-10-07T11:21:49.138Z,94.03
2022-10-07T11:24:15.428Z,122.22
2022-10-07T11:26:41.684Z,124.55
2022-10-07T11:29:07.995Z,112.03
2022-10-07T11:31:35.111Z,84.43
2022-10-07T11:34:01.458Z,76.25
2022-10-07T11:36:27.803Z,74.07
2022-10-07T11:38:54.127Z,85.63
2022-10-07T11:41:20.393Z,105.30
2022-10-07T11:43:46.720Z,121.05
2022-10-07T11:46:13.026Z,125.60
2022-10-07T11:48:39.315Z,141.63
2022-10-07T11:51:05.600Z,138.30
2022-10-07T11:53:31.862Z,145.82
2022-10-07T11:55:58.401Z,132.88
2022-10-07T11:58:24.694Z,110.28
2022-10-07T12:00:50.957Z,124.70
2022-10-07T12:03:17.253Z,123.32
2022-10-07T12:05:43.555Z,114.95
2022-10-07T12:08:09.814Z,112.68
2022-10-07T12:10:36.110Z,137.07
2022-10-07T12:13:02.420Z,129.95
2022-10-07T12:15:29.065Z,154.02
2022-10-07T12:17:55.362Z,183.90
2022-10-07T12:20:22.030Z,191.57
2022-10-07T12:22:48.396Z,1999.90
2022-10-07T12:25:14.659Z,1999.90
2022-10-07T12:27:40.918Z,1999.90
2022-10-07T12:30:09.190Z,1999.90
2022-10-07T12:32:35.455Z,1999.90
2022-10-07T12:35:01.720Z,1999.90
2022-10-07T12:37:28.339Z,1999.90
2022-10-07T12:39:54.604Z,1999.90
2022-10-07T12:42:20.877Z,1999.90
2022-10-07T12:44:51.208Z,1999.90
2022-10-07T12:47:18.581Z,1999.90
2022-10-07T12:49:44.949Z,1999.90
2022-10-07T12:52:12.115Z,1999.90
2022-10-07T12:54:38.362Z,1999.90
2022-10-07T12:57:04.623Z,1999.90
2022-10-07T12:59:49.591Z,1999.90
2022-10-07T13:02:16.012Z,1999.90
2022-10-07T13:04:42.375Z,1999.90
2022-10-07T13:07:08.668Z,1999.90
2022-10-07T13:09:34.920Z,1999.90
2022-10-07T13:12:01.168Z,1999.90
2022-10-07T13:17:11.090Z,1999.90
2022-10-07T13:19:37.604Z,1999.90
2022-10-07T13:22:03.883Z,1999.90
2022-10-07T13:24:30.400Z,1999.90
2022-10-07T13:26:56.686Z,1999.90
2022-10-07T13:29:23.256Z,1999.90
2022-10-07T13:31:49.526Z,1999.90
2022-10-07T13:34:16.356Z,1999.90
2022-10-07T13:36:43.645Z,1999.90
2022-10-07T13:39:10.404Z,1999.90
2022-10-07T13:44:03.963Z,1999.90
2022-10-07T13:46:30.263Z,1999.90
2022-10-07T13:48:56.515Z,1999.90
2022-10-07T13:51:22.849Z,1999.90
2022-10-07T13:53:49.111Z,1999.90
2022-10-07T13:56:15.372Z,1999.90
2022-10-07T13:58:41.614Z,1999.90
2022-10-07T14:01:07.957Z,1999.90
2022-10-07T14:03:34.233Z,1999.90
2022-10-07T14:06:01.371Z,1999.90
2022-10-07T14:08:31.297Z,1999.90
2022-10-07T14:10:57.626Z,1999.90
2022-10-07T14:13:23.978Z,1999.90
2022-10-07T14:15:50.248Z,1999.90
2022-10-07T14:18:17.126Z,1999.90
2022-10-07T14:20:45.336Z,1999.90
2022-10-07T14:23:11.839Z,1999.90
2022-10-07T14:25:38.095Z,1999.90
2022-10-07T14:28:04.430Z,1999.90
2022-10-07T14:30:55.502Z,1999.90
2022-10-07T14:33:41.090Z,1999.90
2022-10-07T14:36:07.378Z,1999.90
2022-10-07T14:38:33.639Z,1999.90
2022-10-07T14:40:59.905Z,1999.90
2022-10-07T14:43:26.178Z,1999.90
2022-10-07T14:45:52.502Z,1999.90
2022-10-07T14:48:18.877Z,1999.90
2022-10-07T14:50:45.139Z,1999.90
2022-10-07T14:53:11.423Z,1999.90
2022-10-07T14:55:37.689Z,1999.90
2022-10-07T14:58:04.118Z,1999.90
2022-10-07T15:00:32.935Z,1999.90
2022-10-07T15:03:02.873Z,1999.90
2022-10-07T15:05:33.776Z,1999.90
2022-10-07T15:08:00.086Z,1999.90
2022-10-07T15:10:26.654Z,1999.90
2022-10-07T15:12:52.939Z,1999.90
2022-10-07T15:15:19.246Z,1999.90
2022-10-07T15:17:45.842Z,1999.90
2022-10-07T15:20:12.090Z,1999.90
2022-10-07T15:22:38.342Z,1999.90
2022-10-07T15:25:04.604Z,1999.90
2022-10-07T15:27:30.872Z,1999.90
2022-10-07T15:29:57.178Z,1999.90
2022-10-07T15:32:23.847Z,1999.90
2022-10-07T15:34:54.140Z,1999.90
2022-10-07T15:37:20.406Z,1999.90
2022-10-07T15:39:46.662Z,1999.90
2022-10-07T15:42:13.552Z,1999.90
2022-10-07T15:44:43.071Z,1999.90
2022-10-07T15:47:09.322Z,1999.90
2022-10-07T15:49:36.289Z,1999.90
2022-10-07T15:52:02.569Z,1999.90
2022-10-07T15:54:28.866Z,1999.90
2022-10-07T15:56:55.148Z,1999.90
2022-10-07T15:59:21.458Z,1999.90
2022-10-07T16:01:51.697Z,1999.90
2022-10-07T16:04:18.355Z,1999.90
2022-10-07T16:06:51.145Z,1999.90
2022-10-07T16:09:19.177Z,1999.90
2022-10-07T16:11:45.879Z,1999.90
2022-10-07T16:14:12.148Z,1999.90
2022-10-07T16:16:38.710Z,1999.90
2022-10-07T16:19:04.995Z,1999.90
2022-10-07T16:21:31.308Z,1999.90
2022-10-07T16:23:58.033Z,1999.90
2022-10-07T16:26:25.899Z,1999.90
2022-10-07T16:31:37.449Z,1999.90
2022-10-07T16:34:03.745Z,1999.90
2022-10-07T16:36:30.273Z,1999.90
2022-10-07T16:38:57.641Z,1999.90
2022-10-07T16:41:23.925Z,1999.90
2022-10-07T16:43:50.183Z,1999.90
2022-10-07T16:46:18.333Z,1999.90
2022-10-07T16:48:44.650Z,1999.90
2022-10-07T16:51:10.917Z,159.43
2022-10-07T16:53:37.209Z,184.13
2022-10-07T16:56:04.602Z,241.98
2022-10-07T16:58:30.855Z,254.70
2022-10-07T17:00:57.384Z,259.85
2022-10-07T17:03:23.698Z,252.90
2022-10-07T17:05:50.008Z,223.90
2022-10-07T17:08:16.310Z,210.93
2022-10-07T17:10:42.587Z,186.57
2022-10-07T17:13:08.834Z,187.20
2022-10-07T17:15:35.244Z,250.48
2022-10-07T17:18:01.720Z,302.05
2022-10-07T17:20:27.978Z,356.63
2022-10-07T17:22:54.250Z,435.52
2022-10-07T17:25:20.507Z,428.08
2022-10-07T17:27:46.985Z,407.83
2022-10-07T17:30:16.125Z,434.45
2022-10-07T17:32:42.459Z,447.52
2022-10-07T17:35:08.732Z,430.15
2022-10-07T17:37:35.447Z,466.90
2022-10-07T17:40:01.746Z,484.10
2022-10-07T17:42:28.025Z,461.30
2022-10-07T17:44:55.057Z,432.08
2022-10-07T17:47:21.347Z,442.60
2022-10-07T17:49:47.601Z,462.50
2022-10-07T17:52:13.864Z,431.33
2022-10-07T17:54:40.120Z,346.38
2022-10-07T17:57:06.383Z,243.07
2022-10-07T17:59:32.642Z,152.55
2022-10-07T18:01:58.915Z,126.95
2022-10-07T18:04:25.439Z,110.60
2022-10-07T18:06:51.765Z,106.10
2022-10-07T18:09:19.149Z,117.90
2022-10-07T18:12:04.227Z,118.18
2022-10-07T18:14:53.444Z,109.90
2022-10-07T18:17:20.479Z,120.93
2022-10-07T18:19:47.434Z,119.13
2022-10-07T18:22:13.791Z,116.65
2022-10-07T18:24:40.064Z,120.20
2022-10-07T18:27:06.332Z,111.45
2022-10-07T18:29:32.604Z,136.20
2022-10-07T18:31:59.126Z,222.38
2022-10-07T18:34:25.460Z,136.10
2022-10-07T18:36:56.253Z,102.07
2022-10-07T18:39:23.393Z,102.65
2022-10-07T18:41:49.671Z,109.60
2022-10-07T18:44:15.952Z,191.45
2022-10-07T18:46:42.214Z,143.30
2022-10-07T18:49:09.310Z,139.98
2022-10-07T18:51:35.517Z,164.00
2022-10-07T18:54:01.784Z,171.48
2022-10-07T18:56:28.078Z,174.32
2022-10-07T18:58:54.331Z,191.95
2022-10-07T19:01:20.653Z,208.25
2022-10-07T19:03:48.712Z,218.68
2022-10-07T19:08:41.316Z,147.00
2022-10-07T19:11:07.655Z,146.00
2022-10-07T19:13:50.916Z,95.85
2022-10-07T19:16:17.215Z,89.25
2022-10-07T19:18:44.175Z,138.95
2022-10-07T19:21:11.391Z,245.30
2022-10-07T19:23:37.656Z,318.90
2022-10-07T19:26:03.937Z,202.73
2022-10-07T19:28:30.947Z,119.47
2022-10-07T19:30:58.939Z,156.63
2022-10-07T19:35:51.814Z,92.00
2022-10-07T19:38:18.065Z,130.43
2022-10-07T19:40:44.978Z,100.75
2022-10-07T19:43:11.251Z,96.18
2022-10-07T19:45:37.728Z,103.45
2022-10-07T19:48:11.664Z,96.65
2022-10-07T19:50:40.154Z,100.75
2022-10-07T19:53:06.410Z,84.63
2022-10-07T19:55:32.698Z,70.72
2022-10-07T19:57:58.943Z,100.78
2022-10-07T20:00:25.189Z,127.68
2022-10-07T20:02:51.451Z,130.88
2022-10-07T20:05:17.982Z,150.70
2022-10-07T20:07:44.549Z,146.13
2022-10-07T20:10:10.984Z,117.15
2022-10-07T20:12:39.425Z,95.45
2022-10-07T20:15:05.671Z,81.47
2022-10-07T20:17:32.000Z,82.00
2022-10-07T20:19:58.277Z,84.57
2022-10-07T20:22:24.556Z,77.75
2022-10-07T20:24:50.814Z,72.90
2022-10-07T20:27:17.883Z,80.25
2022-10-07T20:29:59.058Z,82.03
2022-10-07T20:32:25.416Z,100.47
2022-10-07T20:34:51.671Z,89.18
2022-10-07T20:37:18.256Z,89.47
2022-10-07T20:40:03.278Z,92.72
2022-10-07T20:42:29.721Z,98.00
2022-10-07T20:44:56.023Z,101.43
2022-10-07T20:47:22.314Z,102.82
2022-10-07T20:49:50.716Z,112.07
2022-10-07T20:52:17.277Z,114.68
2022-10-07T20:54:43.559Z,107.78
2022-10-07T20:57:09.810Z,106.32
2022-10-07T20:59:36.058Z,78.75
2022-10-07T21:02:07.240Z,124.70
2022-10-07T21:04:35.496Z,137.40
2022-10-07T21:07:01.761Z,115.43
2022-10-07T21:09:28.024Z,82.82
2022-10-07T21:11:54.598Z,89.78
2022-10-07T21:14:20.921Z,88.80
2022-10-07T21:16:47.285Z,82.82
2022-10-07T21:19:13.586Z,78.13
2022-10-07T21:21:39.872Z,69.18
2022-10-07T21:24:07.115Z,70.15
2022-10-07T21:26:33.632Z,69.97
2022-10-07T21:28:59.878Z,72.10
2022-10-07T21:31:27.172Z,85.13
2022-10-07T21:33:53.490Z,78.97
2022-10-07T21:36:19.751Z,86.63
2022-10-07T21:38:46.016Z,85.63
2022-10-07T21:41:12.398Z,93.75
2022-10-07T21:43:38.661Z,80.10
2022-10-07T21:46:04.956Z,72.80
2022-10-07T21:48:31.526Z,67.03
2022-10-07T21:50:57.787Z,63.10
2022-10-07T21:53:24.027Z,65.40
2022-10-07T21:55:50.290Z,65.95
2022-10-07T21:58:16.543Z,65.38
2022-10-07T22:00:42.806Z,61.35
2022-10-07T22:03:10.659Z,67.32
2022-10-07T22:05:39.326Z,64.72
2022-10-07T22:08:24.405Z,66.03
2022-10-07T22:10:50.670Z,63.72
2022-10-07T22:13:16.925Z,70.30
2022-10-07T22:15:43.211Z,72.25
2022-10-07T22:18:09.466Z,64.95
2022-10-07T22:20:38.756Z,66.45
2022-10-07T22:23:05.833Z,76.45
2022-10-07T22:25:32.043Z,73.60
2022-10-07T22:27:58.343Z,84.50
2022-10-07T22:30:24.929Z,84.80
2022-10-07T22:32:51.199Z,86.90
2022-10-07T22:35:30.163Z,122.53
2022-10-07T22:37:58.248Z,123.90
2022-10-07T22:42:50.852Z,94.93
2022-10-07T22:45:17.385Z,86.80
2022-10-07T22:47:43.660Z,76.35
2022-10-07T22:50:09.912Z,81.85
2022-10-07T22:52:36.224Z,85.88
2022-10-07T22:55:03.143Z,79.93
2022-10-07T22:57:29.469Z,83.38
2022-10-07T22:59:55.885Z,70.32
2022-10-07T23:02:22.254Z,75.03
2022-10-07T23:04:48.543Z,72.10
2022-10-07T23:07:14.803Z,80.47
2022-10-07T23:09:41.126Z,70.53
2022-10-07T23:12:07.365Z,71.35
2022-10-07T23:14:33.610Z,80.13
2022-10-07T23:16:59.969Z,107.32
2022-10-07T23:19:26.234Z,96.75
2022-10-07T23:21:52.485Z,111.32
2022-10-07T23:24:18.772Z,116.82
2022-10-07T23:26:45.918Z,109.65
2022-10-07T23:29:12.099Z,113.17
2022-10-07T23:31:38.419Z,108.80
2022-10-07T23:34:04.848Z,99.18
2022-10-07T23:36:31.124Z,97.47
2022-10-07T23:38:57.675Z,99.13
2022-10-07T23:41:24.225Z,92.10
2022-10-07T23:43:50.572Z,90.32
2022-10-07T23:46:16.907Z,71.30
2022-10-07T23:48:43.202Z,57.60
2022-10-07T23:51:09.527Z,59.40
2022-10-07T23:53:35.803Z,57.38
2022-10-07T23:56:02.059Z,64.15
2022-10-07T23:58:28.308Z,64.65
